Latest  Newer  Older  Last 2 hours slideshow  Last 24 hours slideshow  Refresh every 5 minutes 
Current image  Latest image  Rain/snow radar  Cloud coverage sat images 

All time is UTC (add 2 hours to UTC in wintertime, 3 hours to UTC in DST for Latvia local time)

2021/08/01 01:20 EVRA 010120Z 18006KT CAVOK 16/15 Q1002 NOSIG
2021/08/01 01:20 EVLA 010120Z AUTO 22007KT 7000 +RA FEW005/// SCT014/// OVC017/// 15/15 Q1002
2021/08/01 01:20 EVVA 010120Z AUTO 18006KT CAVOK 16/15 Q1000
2021/08/01 01:20 EYKA 010120Z 18004KT CAVOK 16/15 Q1005
2021/08/01 01:20 EYPA 010120Z 19010KT 3200 SHRA FEW019 BKN036CB 16/15 Q1003
2021/08/01 00:50 EYSA 010050Z AUTO 24007KT 9999NDV FEW028 SCT059 BKN069 16/15 Q1005
2021/08/01 01:20 EYVI 010120Z 19005KT CAVOK 15/14 Q1006 NOSIG
2021/07/31 07:50 EEKA 310750Z 22007KT 150V280 9999 SCT021 20/16 Q0998
2021/08/01 00:50 EEKE 010050Z AUTO 20009KT 9999NDV NCD 16/15 Q1000

2021/08/01 01:20 EETN 010120Z 18004KT CAVOK 15/13 Q1000
2021/08/01 00:50 EETU 010050Z AUTO 18004KT 150V210 8000 -RA OVC080/// 16/15 Q1003
   RIGA AIRPORT     EVRA               56 55N  023 58E   10   X     T          6 LV
   LIEPAJA INTL     EVLA        26406  56 31N  021 06E    4   X                8 LV
   VENTPILS         EVVA               57 21N  021 33E    6   X                8 LV
   KAUNAS           EYKA               54 54N  023 55E   77   X     T          6 LT
   PALANGA INTL     EYPA               55 55N  021 03E   10   X                6 LT
   SIAULIAI INTL    EYSA               55 54N  023 24E  135   X     T          6 LT
   VILNIUS INTL     EYVI        26730  54 38N  025 17E  197   X     T          6 LT
   KARDLA           EEKA        26116  58 59N  022 50E    4   X                8 EE
   KURESSAARE       EEKE               58 14N  022 31E    4   X                8 EE
   PARNU            EEPU               58 25N  024 28E   14   X                8 EE
   TALLINN          EETN        26038  59 24N  024 49E   40   X     T          8 EE
   TARTU            EETU               58 19N  026 41E   67   X                8 EE